< < Back
Terminal Aerodrome Forecast


Current Version              Previous Versions:   1  2  3  4  5  6  7  8  9  

Terminal Aerodrome Forecast

467
FTUS44 KBMX 130444 AAB
TAFTCL
TAF AMD
KTCL 130444Z 1305/1324 33010G17KT P6SM SKC
     FM130600 33010KT P6SM SKC=

Latest METAR

006
SAUS70 KWBC 131700 RRX
MTRTCL
METAR KTCL 132053Z 34008KT 10SM CLR 09/M14 A3042 RMK AO2 SLP299
T00891144 56026


USA.gov is the U.S. government's official web portal to all federal, state and local government web resources and services.